Time,TemperatureF,DewpointF,PressureIn,WindDirection,WindDirectionDegrees,WindSpeedMPH,WindSpeedGustMPH,Humidity,HourlyPrecipIn,Conditions,Clouds,dailyrainin,SolarRadiationWatts/m^2,SoftwareType,DateUTC
2013-02-13 00:12:00,30.7,24.0,29.86,East,98,0.0,-999.0,75,-99.99,,,0.00,0,weatherlink.com 1.10,2013-02-13 06:12:00,
2013-02-13 00:27:00,30.3,23.0,29.86,East,98,1.0,-999.0,75,-99.99,,,0.00,0,weatherlink.com 1.10,2013-02-13 06:27:00,
2013-02-13 00:43:00,29.8,23.0,29.86,East,98,2.0,-999.0,76,-99.99,,,0.00,0,weatherlink.com 1.10,2013-02-13 06:43:00,
2013-02-13 00:58:00,29.7,23.0,29.85,East,98,1.0,-999.0,77,-99.99,,,0.00,0,weatherlink.com 1.10,2013-02-13 06:58:00,
2013-02-13 01:13:00,29.5,23.0,29.84,East,98,0.0,-999.0,77,-99.99,,,0.00,0,weatherlink.com 1.10,2013-02-13 07:13:00,
2013-02-13 01:29:00,29.3,23.0,29.84,East,98,1.0,-999.0,77,-99.99,,,0.00,0,weatherlink.com 1.10,2013-02-13 07:29:00,
2013-02-13 01:43:00,29.3,23.0,29.83,East,98,0.0,-999.0,78,-99.99,,,0.00,0,weatherlink.com 1.10,2013-02-13 07:43:00,
2013-02-13 01:58:00,29.3,23.0,29.83,East,98,1.0,-999.0,78,-99.99,,,0.00,0,weatherlink.com 1.10,2013-02-13 07:58:00,
2013-02-13 02:13:00,29.5,23.0,29.84,ESE,121,2.0,-999.0,77,-99.99,,,0.00,0,weatherlink.com 1.10,2013-02-13 08:13:00,
2013-02-13 02:28:00,29.5,23.0,29.83,ESE,121,2.0,-999.0,77,-99.99,,,0.00,0,weatherlink.com 1.10,2013-02-13 08:28:00,
2013-02-13 02:43:00,29.5,23.0,29.82,ESE,117,3.0,-999.0,77,-99.99,,,0.00,0,weatherlink.com 1.10,2013-02-13 08:43:00,
2013-02-13 02:58:00,29.4,23.0,29.82,ESE,117,2.0,-999.0,77,-99.99,,,0.00,0,weatherlink.com 1.10,2013-02-13 08:58:00,
2013-02-13 03:13:00,29.3,23.0,29.82,SSE,151,3.0,-999.0,77,-99.99,,,0.00,0,weatherlink.com 1.10,2013-02-13 09:13:00,
2013-02-13 03:28:00,29.0,23.0,29.82,ESE,109,2.0,-999.0,77,-99.99,,,0.00,0,weatherlink.com 1.10,2013-02-13 09:28:00,
2013-02-13 03:43:00,28.4,22.0,29.81,ESE,109,1.0,-999.0,78,-99.99,,,0.00,0,weatherlink.com 1.10,2013-02-13 09:43:00,
2013-02-13 03:58:00,28.5,22.0,29.81,SE,124,1.0,-999.0,78,-99.99,,,0.00,0,weatherlink.com 1.10,2013-02-13 09:58:00,
2013-02-13 04:13:00,28.2,22.0,29.81,ESE,117,2.0,-999.0,78,-99.99,,,0.00,0,weatherlink.com 1.10,2013-02-13 10:13:00,
2013-02-13 04:28:00,28.1,22.0,29.80,ESE,110,1.0,-999.0,79,-99.99,,,0.00,0,weatherlink.com 1.10,2013-02-13 10:28:00,
2013-02-13 04:43:00,27.8,22.0,29.80,ESE,110,1.0,-999.0,79,-99.99,,,0.00,0,weatherlink.com 1.10,2013-02-13 10:43:00,
2013-02-13 04:58:00,27.8,22.0,29.80,ESE,118,2.0,-999.0,80,-99.99,,,0.00,0,weatherlink.com 1.10,2013-02-13 10:58:00,
2013-02-13 05:13:00,27.6,22.0,29.80,ESE,109,1.0,-999.0,80,-99.99,,,0.00,0,weatherlink.com 1.10,2013-02-13 11:13:00,
2013-02-13 05:28:00,27.5,22.0,29.80,SE,133,3.0,-999.0,80,-99.99,,,0.00,0,weatherlink.com 1.10,2013-02-13 11:28:00,
2013-02-13 05:43:00,27.5,22.0,29.80,ESE,108,1.0,-999.0,80,-99.99,,,0.00,0,weatherlink.com 1.10,2013-02-13 11:43:00,
2013-02-13 05:58:00,27.6,22.0,29.80,ESE,122,1.0,-999.0,80,-99.99,,,0.00,0,weatherlink.com 1.10,2013-02-13 11:58:00,
2013-02-13 06:13:00,27.5,22.0,29.80,ESE,120,0.0,-999.0,80,-99.99,,,0.00,0,weatherlink.com 1.10,2013-02-13 12:13:00,
2013-02-13 06:28:00,27.3,22.0,29.80,ESE,114,2.0,-999.0,80,-99.99,,,0.00,0,weatherlink.com 1.10,2013-02-13 12:28:00,
2013-02-13 06:58:00,26.9,22.0,29.80,ESE,114,0.0,-999.0,81,-99.99,,,0.00,0,weatherlink.com 1.10,2013-02-13 12:58:00,
2013-02-13 07:13:00,26.3,22.0,29.80,ESE,114,1.0,-999.0,82,-99.99,,,0.00,0,weatherlink.com 1.10,2013-02-13 13:13:00,
2013-02-13 07:28:00,26.4,22.0,29.81,East,96,2.0,-999.0,83,-99.99,,,0.00,11,weatherlink.com 1.10,2013-02-13 13:28:00,
2013-02-13 07:43:00,26.6,22.0,29.81,East,96,1.0,-999.0,83,-99.99,,,0.00,18,weatherlink.com 1.10,2013-02-13 13:43:00,
2013-02-13 07:58:00,27.0,22.0,29.80,ESE,121,2.0,-999.0,82,-99.99,,,0.00,35,weatherlink.com 1.10,2013-02-13 13:58:00,
2013-02-13 08:13:00,27.6,23.0,29.80,ESE,120,2.0,-999.0,81,-99.99,,,0.00,39,weatherlink.com 1.10,2013-02-13 14:13:00,
2013-02-13 08:29:00,28.4,23.0,29.81,East,90,1.0,-999.0,80,-99.99,,,0.00,30,weatherlink.com 1.10,2013-02-13 14:29:00,
2013-02-13 08:43:00,29.3,24.0,29.81,East,90,2.0,-999.0,79,-99.99,,,0.00,54,weatherlink.com 1.10,2013-02-13 14:43:00,
2013-02-13 08:58:00,30.4,24.0,29.81,East,96,2.0,-999.0,78,-99.99,,,0.00,123,weatherlink.com 1.10,2013-02-13 14:58:00,
2013-02-13 09:13:00,31.6,25.0,29.80,SSE,159,1.0,-999.0,75,-99.99,,,0.00,128,weatherlink.com 1.10,2013-02-13 15:13:00,
2013-02-13 09:29:00,32.9,25.0,29.81,East,92,3.0,-999.0,74,-99.99,,,0.00,95,weatherlink.com 1.10,2013-02-13 15:29:00,
2013-02-13 09:43:00,34.0,26.0,29.80,ESE,117,2.0,-999.0,72,-99.99,,,0.00,264,weatherlink.com 1.10,2013-02-13 15:43:00,
2013-02-13 09:59:00,34.7,26.0,29.80,SE,140,5.0,-999.0,71,-99.99,,,0.00,381,weatherlink.com 1.10,2013-02-13 15:59:00,
2013-02-13 10:14:00,36.6,27.0,29.81,East,98,2.0,-999.0,69,-99.99,,,0.00,452,weatherlink.com 1.10,2013-02-13 16:14:00,
2013-02-13 10:29:00,37.3,27.0,29.81,East,92,3.0,-999.0,66,-99.99,,,0.00,492,weatherlink.com 1.10,2013-02-13 16:29:00,
2013-02-13 10:44:00,38.6,27.0,29.81,SE,132,5.0,-999.0,64,-99.99,,,0.00,373,weatherlink.com 1.10,2013-02-13 16:44:00,
2013-02-13 10:59:00,39.3,28.0,29.80,East,100,2.0,-999.0,64,-99.99,,,0.00,341,weatherlink.com 1.10,2013-02-13 16:59:00,
2013-02-13 11:14:00,40.1,27.0,29.80,ENE,65,2.0,-999.0,61,-99.99,,,0.00,531,weatherlink.com 1.10,2013-02-13 17:14:00,
2013-02-13 11:29:00,41.5,28.0,29.80,East,86,6.0,-999.0,58,-99.99,,,0.00,599,weatherlink.com 1.10,2013-02-13 17:29:00,
2013-02-13 11:44:00,42.1,28.0,29.79,ESE,114,0.0,-999.0,58,-99.99,,,0.00,601,weatherlink.com 1.10,2013-02-13 17:44:00,
2013-02-13 11:59:00,43.3,28.0,29.79,East,98,2.0,-999.0,55,-99.99,,,0.00,606,weatherlink.com 1.10,2013-02-13 17:59:00,
2013-02-13 12:14:00,44.2,28.0,29.78,East,89,4.0,-999.0,53,-99.99,,,0.00,531,weatherlink.com 1.10,2013-02-13 18:14:00,
2013-02-13 12:29:00,44.9,29.0,29.77,East,101,1.0,-999.0,54,-99.99,,,0.00,508,weatherlink.com 1.10,2013-02-13 18:29:00,
2013-02-13 12:44:00,46.2,29.0,29.76,ENE,76,3.0,-999.0,51,-99.99,,,0.00,364,weatherlink.com 1.10,2013-02-13 18:44:00,
2013-02-13 12:59:00,46.4,29.0,29.76,ESE,120,6.0,-999.0,52,-99.99,,,0.00,431,weatherlink.com 1.10,2013-02-13 18:59:00,
2013-02-13 13:14:00,47.0,28.0,29.74,ESE,114,7.0,-999.0,48,-99.99,,,0.00,128,weatherlink.com 1.10,2013-02-13 19:14:00,
2013-02-13 13:29:00,47.6,29.0,29.74,East,101,5.0,-999.0,49,-99.99,,,0.00,246,weatherlink.com 1.10,2013-02-13 19:29:00,
2013-02-13 13:44:00,48.3,28.0,29.74,ENE,73,3.0,-999.0,46,-99.99,,,0.00,475,weatherlink.com 1.10,2013-02-13 19:44:00,
2013-02-13 13:59:00,49.2,29.0,29.73,NE,56,6.0,-999.0,45,-99.99,,,0.00,374,weatherlink.com 1.10,2013-02-13 19:59:00,
2013-02-13 14:15:00,49.9,29.0,29.73,NE,37,5.0,-999.0,45,-99.99,,,0.00,325,weatherlink.com 1.10,2013-02-13 20:15:00,
2013-02-13 14:29:00,50.4,29.0,29.72,NE,36,7.0,-999.0,44,-99.99,,,0.00,388,weatherlink.com 1.10,2013-02-13 20:29:00,
2013-02-13 14:44:00,50.5,28.0,29.72,ENE,72,3.0,-999.0,42,-99.99,,,0.00,431,weatherlink.com 1.10,2013-02-13 20:44:00,
2013-02-13 14:59:00,51.1,27.0,29.72,East,94,5.0,-999.0,39,-99.99,,,0.00,417,weatherlink.com 1.10,2013-02-13 20:59:00,
2013-02-13 15:15:00,51.4,27.0,29.71,East,83,3.0,-999.0,39,-99.99,,,0.00,381,weatherlink.com 1.10,2013-02-13 21:15:00,
2013-02-13 15:29:00,51.3,28.0,29.71,ENE,65,4.0,-999.0,41,-99.99,,,0.00,320,weatherlink.com 1.10,2013-02-13 21:29:00,
2013-02-13 15:44:00,51.1,28.0,29.71,NE,41,9.0,-999.0,41,-99.99,,,0.00,302,weatherlink.com 1.10,2013-02-13 21:44:00,
2013-02-13 15:59:00,50.8,28.0,29.71,NE,49,10.0,-999.0,41,-99.99,,,0.00,167,weatherlink.com 1.10,2013-02-13 21:59:00,
2013-02-13 16:15:00,50.5,27.0,29.71,East,81,3.0,-999.0,40,-99.99,,,0.00,135,weatherlink.com 1.10,2013-02-13 22:15:00,
2013-02-13 16:30:00,50.4,27.0,29.71,ENE,74,5.0,-999.0,41,-99.99,,,0.00,63,weatherlink.com 1.10,2013-02-13 22:30:00,
2013-02-13 16:45:00,49.6,28.0,29.71,NNE,31,5.0,-999.0,44,-99.99,,,0.00,63,weatherlink.com 1.10,2013-02-13 22:45:00,
2013-02-13 17:00:00,49.2,27.0,29.70,NE,41,6.0,-999.0,43,-99.99,,,0.00,76,weatherlink.com 1.10,2013-02-13 23:00:00,
2013-02-13 17:15:00,48.8,27.0,29.70,ENE,71,2.0,-999.0,43,-99.99,,,0.00,25,weatherlink.com 1.10,2013-02-13 23:15:00,
2013-02-13 17:30:00,47.7,28.0,29.70,NE,50,3.0,-999.0,46,-99.99,,,0.00,12,weatherlink.com 1.10,2013-02-13 23:30:00,
2013-02-13 17:45:00,46.4,28.0,29.70,NE,45,2.0,-999.0,49,-99.99,,,0.00,0,weatherlink.com 1.10,2013-02-13 23:45:00,
2013-02-13 18:00:00,45.4,28.0,29.70,NE,45,0.0,-999.0,50,-99.99,,,0.00,0,weatherlink.com 1.10,2013-02-14 00:00:00,
2013-02-13 18:14:00,44.8,27.0,29.70,NE,45,0.0,-999.0,50,-99.99,,,0.00,0,weatherlink.com 1.10,2013-02-14 00:14:00,
2013-02-13 18:30:00,44.3,27.0,29.71,NE,45,0.0,-999.0,51,-99.99,,,0.00,0,weatherlink.com 1.10,2013-02-14 00:30:00,
2013-02-13 18:45:00,43.8,27.0,29.71,NE,45,0.0,-999.0,52,-99.99,,,0.00,0,weatherlink.com 1.10,2013-02-14 00:45:00,
2013-02-13 19:00:00,43.3,27.0,29.71,NE,45,0.0,-999.0,53,-99.99,,,0.00,0,weatherlink.com 1.10,2013-02-14 01:00:00,
2013-02-13 19:15:00,42.8,27.0,29.71,NE,45,2.0,-999.0,53,-99.99,,,0.00,0,weatherlink.com 1.10,2013-02-14 01:15:00,
2013-02-13 19:30:00,42.8,27.0,29.70,NE,45,1.0,-999.0,54,-99.99,,,0.00,0,weatherlink.com 1.10,2013-02-14 01:30:00,
2013-02-13 19:45:00,43.2,27.0,29.70,NE,45,2.0,-999.0,54,-99.99,,,0.00,0,weatherlink.com 1.10,2013-02-14 01:45:00,
2013-02-13 20:00:00,43.2,27.0,29.70,NE,45,1.0,-999.0,54,-99.99,,,0.00,0,weatherlink.com 1.10,2013-02-14 02:00:00,
2013-02-13 20:15:00,42.9,28.0,29.69,NE,45,2.0,-999.0,55,-99.99,,,0.00,0,weatherlink.com 1.10,2013-02-14 02:15:00,
2013-02-13 20:30:00,42.8,27.0,29.68,NE,45,2.0,-999.0,55,-99.99,,,0.00,0,weatherlink.com 1.10,2013-02-14 02:30:00,
2013-02-13 20:45:00,42.8,28.0,29.68,NE,44,2.0,-999.0,56,-99.99,,,0.00,0,weatherlink.com 1.10,2013-02-14 02:45:00,
2013-02-13 21:00:00,42.8,28.0,29.67,NE,44,3.0,-999.0,56,-99.99,,,0.00,0,weatherlink.com 1.10,2013-02-14 03:00:00,
2013-02-13 21:15:00,42.3,28.0,29.67,NE,37,2.0,-999.0,57,-99.99,,,0.00,0,weatherlink.com 1.10,2013-02-14 03:15:00,
2013-02-13 21:30:00,41.9,28.0,29.67,ENE,59,3.0,-999.0,58,-99.99,,,0.00,0,weatherlink.com 1.10,2013-02-14 03:30:00,
2013-02-13 21:45:00,41.8,28.0,29.66,NNE,22,3.0,-999.0,59,-99.99,,,0.00,0,weatherlink.com 1.10,2013-02-14 03:45:00,
2013-02-13 22:03:00,41.5,28.0,29.67,East,88,3.0,-999.0,59,-99.99,,,0.00,0,weatherlink.com 1.10,2013-02-14 04:03:00,
2013-02-13 22:14:00,41.8,28.0,29.67,East,82,4.0,-999.0,58,-99.99,,,0.00,0,weatherlink.com 1.10,2013-02-14 04:14:00,
2013-02-13 22:44:00,41.6,28.0,29.67,East,91,2.0,-999.0,60,-99.99,,,0.00,0,weatherlink.com 1.10,2013-02-14 04:44:00,
2013-02-13 23:00:00,40.8,28.0,29.67,East,92,1.0,-999.0,61,-99.99,,,0.00,0,weatherlink.com 1.10,2013-02-14 05:00:00,
2013-02-13 23:15:00,40.2,28.0,29.67,East,94,2.0,-999.0,63,-99.99,,,0.00,0,weatherlink.com 1.10,2013-02-14 05:15:00,
2013-02-13 23:30:00,39.8,28.0,29.67,East,89,1.0,-999.0,64,-99.99,,,0.00,0,weatherlink.com 1.10,2013-02-14 05:30:00,
2013-02-13 23:45:00,39.3,28.0,29.67,East,88,1.0,-999.0,65,-99.99,,,0.00,0,weatherlink.com 1.10,2013-02-14 05:45:00,